默认 日期 大小 文件数 浏览量 最新下载 xml
set up磁力链接相关资源由用户搜索指令自动获取,结果来源于网络,本站不存储任何资料,亦不承担任何责任,请于24小时内删除,搜索到695个磁力,用时7ms。
    {"Torrent Downloaded From UIndex.org .txt": 129, "Aussie Shore S02E06 Its A Set-Up 1080p AMZN WEB-DL DDP2 0 H 264-RAWR.mkv": 3207611126, "Aussie Shore S02E06 Its A Set-Up 1080p AMZN WEB-DL DDP2 0 H 264-RAWR.mkv.nfo": 847}
创建时间: 2025-10-25 13:14:28 大小:2.99 GB 文件数量:3 热度:0
    {"01.webp": 650088, "02.webp": 182008, "03.webp": 754786, "04.webp": 794038, "05.webp": 705614, "06.webp": 609822, "07.webp": 727188, "08.webp": 780758, "09.webp": 616496, "10.webp": 574516, "11.webp": 694642, "12.webp": 804002, "13.webp": 334004, "14.webp ...
创建时间: 2025-10-05 11:49:35 大小:11.61 MB 文件数量:22 热度:2 最近下载:2025-10-07 16:38:02
    {"Torrent Downloaded From UIndex.org .txt": 129, "Set Up 2011 1080p FDNG WEB-DL DDP 5 1 H 264-PiRaTeS.mkv": 5489373786, "Set Up 2011 1080p FDNG WEB-DL DDP 5 1 H 264-PiRaTeS.mkv.nfo": 777}
创建时间: 2025-10-04 12:25:12 大小:5.11 GB 文件数量:3 热度:1 最近下载:2025-10-06 02:49:02
    {"Set.Up.2011.SWESUB.BluRay.720p.DTS.x264-aka.mkv": 3754115994, "Dreamseed.nu - Där du hittar den här releasen först!.txt": 6732}
创建时间: 2025-09-10 09:21:39 大小:3.5 GB 文件数量:2 热度:1 最近下载:2025-09-29 15:03:07
    {"omegleplus.com (1).jpg": 180123, "omegleplus.com (1).png": 39849, "omegleplus.com (2).jpg": 123307, "omegleplus.com (2).png": 4987, "omegleplus.com (3).jpg": 115293, "omegleplus.com (4).jpg": 5986196, "omegleplus.com (5).jpg": 5395020, "omegleplus.com (6 ...
创建时间: 2025-09-08 15:34:15 大小:112.59 MB 文件数量:56 热度:5 最近下载:2025-10-07 09:12:05
    ... Vegas Artie VS Marissa Basketball Set Up.mp4": 970090444, "2003-04- ... Vegas Artie VS Marissa Basketball Set Up.ia.mp4": 970090444, "2003- ... -vegas-artie-vs-marissa-basketball-set-up_meta.xml": 753, "2003- ... -artie-vs-marissa-basketball-set-up_meta.sqlite": 20480}
创建时间: 2025-09-08 13:41:51 大小:1.81 GB 文件数量:5 热度:4 最近下载:2025-10-13 21:16:01
    {"Folder.jpg": 5229518, "2XHDFT1095.jpg": 974856, "2XHDFT1095.pdf": 11114785, "16. Harp DSD 256fs - 2ch.dsf": 304275654, "23. Bawu DSD 256fs - 2ch.dsf": 74514630, "04. Story DSD 256fs - 2ch.dsf": 405135558, "22. Duduk DSD 256fs - 2ch.dsf": 83525830, "18. ...
创建时间: 2025-09-05 13:44:00 大小:9 GB 文件数量:72 热度:0
    {"bilgi.txt": 6794, "_CheerfulTomato.txt": 320, "screenshot_1_1080P.jpg": 259269, "screenshot_2_1080P.jpg": 243599, "screenshot_3_1080P.jpg": 307284, "Set It Up (2018) 1080P NF WEB-DL [EN-TR] DDP5.1 H264-TURG.mkv": 4958155648}
创建时间: 2025-09-04 19:32:15 大小:4.62 GB 文件数量:6 热度:3 最近下载:2025-09-07 04:26:01
    {"Links.txt": 271, "Preview Video.mp4": 227432058}
创建时间: 2025-09-04 16:32:27 大小:216.9 MB 文件数量:2 热度:7 最近下载:2025-10-12 08:25:01
    {"[JustDanica] - 2012-03-30 - Waking Up With Me [1920x1080][WMV].wmv": 668868503, "[JustDanica] - 2012-03-30 - Waking Up With Me [x78][3000px][HIRES].zip": 85660324}
创建时间: 2025-09-03 13:58:27 大小:719.57 MB 文件数量:2 热度:12 最近下载:2025-10-13 00:05:01
    {"Torrent Downloaded From UIndex.org .txt": 129, "Set It Up (2018) (2160p NF WEB-DL H265 SDR DDP 5.1 English - HONE).mkv": 9813018941}
创建时间: 2025-08-29 08:45:09 大小:9.14 GB 文件数量:2 热度:3 最近下载:2025-09-04 07:52:03
    {"01.webp": 650088, "02.webp": 182008, "03.webp": 754786, "04.webp": 794038, "05.webp": 705614, "06.webp": 609822, "07.webp": 727188, "08.webp": 780758, "09.webp": 616496, "10.webp": 574516, "11.webp": 694642, "12.webp": 804002, "13.webp": 334004, "14.webp ...
创建时间: 2025-06-26 15:59:45 大小:11.11 MB 文件数量:18 热度:6 最近下载:2025-09-17 14:02:31
    {"Torrent Downloaded From UIndex.org .txt": 129, "Starsky Hutch S02E16 The Set-Up Part 1 1080p WEBRip DD5 1 HEVC-d3g.mkv": 1345605120, "Starsky Hutch S02E16 The Set-Up Part 1 1080p WEBRip DD5 1 HEVC-d3g.nfo": 4668}
创建时间: 2025-05-11 18:50:13 大小:1.25 GB 文件数量:3 热度:8 最近下载:2025-09-20 07:16:02
    {"poster.jpg": 137160, "Set.Up.2011.x264.DTS-WAF.mkv": 1469890583, "Set.Up.2011.x264 ... .DTS-WAF.nfo": 819, "Set.Up.2011.x264 ... .DTS-WAF.smi": 115727, "Set.Up.2011.x264 ...
创建时间: 2025-05-03 16:32:26 大小:1.37 GB 文件数量:11 热度:2 最近下载:2025-09-01 13:43:02
    ... .Of.Anubis.S03E18.House.Of.Set.Up.1080p.HDTV.x264-PLUTONiUM.mkv ... .of.anubis.s03e18.house.of.set.up.1080p.hdtv.x264-plutonium.nfo ...
创建时间: 2025-04-28 19:03:46 大小:1.22 GB 文件数量:7 热度:4 最近下载:2025-09-19 09:17:02
    {"~Get Your Files Here !": {"1 - Introduction": {"3 -Build Your Personal Brand.pdf": 4473626, "1 -Personal Brand Workbook_2025.pdf": 1652547, "2 -Why a personal brand is your best protection - video.mp4": 58772320, "1 -What you'll find in this course, and ...
创建时间: 2025-04-27 16:19:52 大小:1.47 GB 文件数量:49 热度:5 最近下载:2025-10-02 06:35:02
    {"tracked_by_h33t_com.txt": 193, "PC Pro Magazine - May 2012.rar": 131461645, "Torrent downloaded from AhaShare.com.txt": 59, "Torrent Downloaded From ExtraTorrent.com.txt": 353}
创建时间: 2025-03-15 12:18:37 大小:125.37 MB 文件数量:4 热度:6 最近下载:2025-09-18 20:31:09
    {"~Get Your Files Here !": {"1 -Introduction.mp4": 24985920, "Bonus Resources.txt": 70, "6 -Compliance and Reporting.mp4": 47873862, "7 -Cross Border Tax Strategy.mp4": 87919634, "5 -Malta 5% Corporate Tax Rate.mp4": 26877617, "8 -Advanced Anti-Abuse ...
创建时间: 2025-03-06 17:52:01 大小:409.9 MB 文件数量:12 热度:2 最近下载:2025-09-01 13:43:02
    ... .The.Real-World.Guide.To.Set.Up.And.Workflow.2020.1080p.HC ... .The.Real-World.Guide.To.Set.Up.And.Workflow.2020.1080p.HC ... .The.Real-World.Guide.To.Set.Up.And.Workflow.2020.1080p.HC ...
创建时间: 2025-03-05 12:49:42 大小:712.44 MB 文件数量:3 热度:9 最近下载:2025-09-20 04:13:03
    {"Set.it.up.2018.1080P-Dual-Lat.mp4": 1816748244, "Descargar Películas, Series y Animes Gratis....url": 50}
创建时间: 2025-03-01 18:14:55 大小:1.69 GB 文件数量:2 热度:5 最近下载:2025-09-01 13:43:02